sensor_id;sensor_type;location;lat;lon;timestamp;P1;durP1;ratioP1;P2;durP2;ratioP2
7881;SDS011;3986;41.884;23.466;2022-12-16T00:00:38;55.50;;;25.70;;
7881;SDS011;3986;41.884;23.466;2022-12-16T00:03:05;45.33;;;23.30;;
7881;SDS011;3986;41.884;23.466;2022-12-16T00:05:32;61.27;;;38.37;;
7881;SDS011;3986;41.884;23.466;2022-12-16T00:08:01;47.27;;;28.77;;
7881;SDS011;3986;41.884;23.466;2022-12-16T00:10:28;46.87;;;29.93;;
7881;SDS011;3986;41.884;23.466;2022-12-16T00:13:17;63.43;;;28.10;;
7881;SDS011;3986;41.884;23.466;2022-12-16T00:15:44;47.07;;;21.33;;
7881;SDS011;3986;41.884;23.466;2022-12-16T00:18:12;38.53;;;17.50;;
7881;SDS011;3986;41.884;23.466;2022-12-16T00:20:42;42.23;;;18.57;;
7881;SDS011;3986;41.884;23.466;2022-12-16T00:23:10;39.47;;;16.50;;
7881;SDS011;3986;41.884;23.466;2022-12-16T00:25:36;53.17;;;23.50;;
7881;SDS011;3986;41.884;23.466;2022-12-16T00:28:03;32.60;;;19.37;;
7881;SDS011;3986;41.884;23.466;2022-12-16T00:30:31;33.30;;;16.90;;
7881;SDS011;3986;41.884;23.466;2022-12-16T00:32:58;99.70;;;18.07;;
7881;SDS011;3986;41.884;23.466;2022-12-16T00:35:25;29.80;;;15.13;;
7881;SDS011;3986;41.884;23.466;2022-12-16T00:37:52;21.70;;;12.30;;
7881;SDS011;3986;41.884;23.466;2022-12-16T00:40:19;42.13;;;13.50;;
7881;SDS011;3986;41.884;23.466;2022-12-16T00:42:45;33.10;;;14.10;;
7881;SDS011;3986;41.884;23.466;2022-12-16T00:45:12;28.27;;;13.70;;
7881;SDS011;3986;41.884;23.466;2022-12-16T00:47:40;41.63;;;15.13;;
7881;SDS011;3986;41.884;23.466;2022-12-16T00:50:07;32.53;;;13.63;;
7881;SDS011;3986;41.884;23.466;2022-12-16T00:52:35;32.87;;;13.37;;
7881;SDS011;3986;41.884;23.466;2022-12-16T00:55:02;28.13;;;14.67;;
7881;SDS011;3986;41.884;23.466;2022-12-16T00:57:29;24.40;;;15.90;;
7881;SDS011;3986;41.884;23.466;2022-12-16T00:59:56;29.47;;;15.93;;
7881;SDS011;3986;41.884;23.466;2022-12-16T01:02:22;26.13;;;15.17;;
7881;SDS011;3986;41.884;23.466;2022-12-16T01:04:51;26.10;;;14.47;;
7881;SDS011;3986;41.884;23.466;2022-12-16T01:07:17;27.47;;;13.67;;
7881;SDS011;3986;41.884;23.466;2022-12-16T01:09:44;29.37;;;14.07;;
7881;SDS011;3986;41.884;23.466;2022-12-16T01:12:11;25.27;;;14.17;;
7881;SDS011;3986;41.884;23.466;2022-12-16T01:14:38;31.93;;;16.63;;
7881;SDS011;3986;41.884;23.466;2022-12-16T01:17:04;23.20;;;15.00;;
7881;SDS011;3986;41.884;23.466;2022-12-16T01:19:31;15.83;;;13.07;;
7881;SDS011;3986;41.884;23.466;2022-12-16T01:21:59;26.67;;;13.87;;
7881;SDS011;3986;41.884;23.466;2022-12-16T01:24:26;23.93;;;14.87;;
7881;SDS011;3986;41.884;23.466;2022-12-16T01:26:53;26.83;;;14.53;;
7881;SDS011;3986;41.884;23.466;2022-12-16T01:29:19;35.20;;;14.27;;
7881;SDS011;3986;41.884;23.466;2022-12-16T01:31:46;33.03;;;15.67;;
7881;SDS011;3986;41.884;23.466;2022-12-16T01:34:13;30.37;;;14.43;;
7881;SDS011;3986;41.884;23.466;2022-12-16T01:36:41;32.27;;;13.33;;
7881;SDS011;3986;41.884;23.466;2022-12-16T01:39:09;16.77;;;12.00;;
7881;SDS011;3986;41.884;23.466;2022-12-16T01:41:36;16.27;;;11.17;;
7881;SDS011;3986;41.884;23.466;2022-12-16T01:44:11;16.63;;;11.70;;
7881;SDS011;3986;41.884;23.466;2022-12-16T01:46:39;26.90;;;11.07;;
7881;SDS011;3986;41.884;23.466;2022-12-16T01:49:09;27.00;;;12.83;;
7881;SDS011;3986;41.884;23.466;2022-12-16T01:51:41;29.17;;;12.33;;
7881;SDS011;3986;41.884;23.466;2022-12-16T01:54:10;26.47;;;12.80;;
7881;SDS011;3986;41.884;23.466;2022-12-16T01:56:41;25.40;;;12.00;;
7881;SDS011;3986;41.884;23.466;2022-12-16T01:59:11;32.33;;;12.37;;
7881;SDS011;3986;41.884;23.466;2022-12-16T02:01:41;29.87;;;12.67;;
7881;SDS011;3986;41.884;23.466;2022-12-16T02:04:07;17.87;;;11.33;;
7881;SDS011;3986;41.884;23.466;2022-12-16T02:06:34;21.70;;;12.90;;
7881;SDS011;3986;41.884;23.466;2022-12-16T02:09:02;18.00;;;12.23;;
7881;SDS011;3986;41.884;23.466;2022-12-16T02:11:37;20.60;;;12.30;;
7881;SDS011;3986;41.884;23.466;2022-12-16T02:14:26;31.50;;;12.10;;
7881;SDS011;3986;41.884;23.466;2022-12-16T02:17:02;24.47;;;13.67;;
7881;SDS011;3986;41.884;23.466;2022-12-16T02:19:44;28.10;;;13.53;;
7881;SDS011;3986;41.884;23.466;2022-12-16T02:22:37;31.27;;;14.60;;
7881;SDS011;3986;41.884;23.466;2022-12-16T02:25:32;51.17;;;15.27;;
7881;SDS011;3986;41.884;23.466;2022-12-16T02:28:21;35.23;;;15.10;;
7881;SDS011;3986;41.884;23.466;2022-12-16T02:31:12;21.37;;;14.10;;
7881;SDS011;3986;41.884;23.466;2022-12-16T02:36:41;15.90;;;13.70;;
7881;SDS011;3986;41.884;23.466;2022-12-16T02:39:18;29.57;;;14.10;;
7881;SDS011;3986;41.884;23.466;2022-12-16T02:41:48;40.73;;;16.23;;
7881;SDS011;3986;41.884;23.466;2022-12-16T02:44:20;33.23;;;15.53;;
7881;SDS011;3986;41.884;23.466;2022-12-16T02:46:56;49.53;;;22.03;;
7881;SDS011;3986;41.884;23.466;2022-12-16T02:52:19;42.07;;;17.70;;
7881;SDS011;3986;41.884;23.466;2022-12-16T02:54:48;38.00;;;17.13;;
7881;SDS011;3986;41.884;23.466;2022-12-16T03:00:22;36.60;;;17.30;;
7881;SDS011;3986;41.884;23.466;2022-12-16T03:02:54;38.23;;;17.50;;
7881;SDS011;3986;41.884;23.466;2022-12-16T03:05:25;30.90;;;15.77;;
7881;SDS011;3986;41.884;23.466;2022-12-16T03:07:56;43.10;;;15.97;;
7881;SDS011;3986;41.884;23.466;2022-12-16T03:10:27;43.63;;;17.87;;
7881;SDS011;3986;41.884;23.466;2022-12-16T03:13:00;39.33;;;18.33;;
7881;SDS011;3986;41.884;23.466;2022-12-16T03:15:28;31.10;;;16.73;;
7881;SDS011;3986;41.884;23.466;2022-12-16T03:18:00;39.60;;;17.20;;
7881;SDS011;3986;41.884;23.466;2022-12-16T03:20:29;34.67;;;16.80;;
7881;SDS011;3986;41.884;23.466;2022-12-16T03:23:01;28.33;;;16.83;;
7881;SDS011;3986;41.884;23.466;2022-12-16T03:25:33;42.07;;;17.23;;
7881;SDS011;3986;41.884;23.466;2022-12-16T03:28:05;25.33;;;16.83;;
7881;SDS011;3986;41.884;23.466;2022-12-16T03:30:43;24.73;;;16.73;;
7881;SDS011;3986;41.884;23.466;2022-12-16T03:33:17;33.57;;;20.80;;
7881;SDS011;3986;41.884;23.466;2022-12-16T03:35:48;32.77;;;18.33;;
7881;SDS011;3986;41.884;23.466;2022-12-16T03:38:20;37.50;;;20.30;;
7881;SDS011;3986;41.884;23.466;2022-12-16T03:40:48;38.87;;;20.77;;
7881;SDS011;3986;41.884;23.466;2022-12-16T03:43:16;29.23;;;14.90;;
7881;SDS011;3986;41.884;23.466;2022-12-16T03:45:44;24.53;;;14.20;;
7881;SDS011;3986;41.884;23.466;2022-12-16T03:48:12;23.13;;;13.77;;
7881;SDS011;3986;41.884;23.466;2022-12-16T03:50:42;15.23;;;11.23;;
7881;SDS011;3986;41.884;23.466;2022-12-16T03:53:09;19.10;;;10.90;;
7881;SDS011;3986;41.884;23.466;2022-12-16T03:55:35;17.60;;;10.03;;
7881;SDS011;3986;41.884;23.466;2022-12-16T03:58:02;26.80;;;11.07;;
7881;SDS011;3986;41.884;23.466;2022-12-16T04:00:29;31.13;;;11.07;;
7881;SDS011;3986;41.884;23.466;2022-12-16T04:02:56;22.90;;;9.90;;
7881;SDS011;3986;41.884;23.466;2022-12-16T04:05:22;29.10;;;12.23;;
7881;SDS011;3986;41.884;23.466;2022-12-16T04:07:51;23.57;;;11.23;;
7881;SDS011;3986;41.884;23.466;2022-12-16T04:10:17;25.03;;;17.17;;
7881;SDS011;3986;41.884;23.466;2022-12-16T04:13:06;30.73;;;26.50;;
7881;SDS011;3986;41.884;23.466;2022-12-16T04:15:51;49.77;;;29.83;;
7881;SDS011;3986;41.884;23.466;2022-12-16T04:18:35;33.50;;;22.73;;
7881;SDS011;3986;41.884;23.466;2022-12-16T04:21:21;34.13;;;16.43;;
7881;SDS011;3986;41.884;23.466;2022-12-16T04:24:08;36.63;;;14.63;;
7881;SDS011;3986;41.884;23.466;2022-12-16T04:26:44;23.63;;;16.33;;
7881;SDS011;3986;41.884;23.466;2022-12-16T04:29:28;47.97;;;21.57;;
7881;SDS011;3986;41.884;23.466;2022-12-16T04:31:55;43.03;;;24.33;;
7881;SDS011;3986;41.884;23.466;2022-12-16T04:34:22;38.97;;;22.00;;
7881;SDS011;3986;41.884;23.466;2022-12-16T04:36:51;38.53;;;19.90;;
7881;SDS011;3986;41.884;23.466;2022-12-16T04:39:37;46.40;;;21.90;;
7881;SDS011;3986;41.884;23.466;2022-12-16T04:42:21;29.03;;;23.07;;
7881;SDS011;3986;41.884;23.466;2022-12-16T04:45:05;46.60;;;25.57;;
7881;SDS011;3986;41.884;23.466;2022-12-16T04:47:51;42.53;;;25.57;;
7881;SDS011;3986;41.884;23.466;2022-12-16T04:50:35;59.77;;;36.20;;
7881;SDS011;3986;41.884;23.466;2022-12-16T04:53:19;49.17;;;35.00;;
7881;SDS011;3986;41.884;23.466;2022-12-16T04:56:05;70.73;;;40.50;;
7881;SDS011;3986;41.884;23.466;2022-12-16T04:58:49;68.53;;;42.73;;
7881;SDS011;3986;41.884;23.466;2022-12-16T05:01:34;65.23;;;39.20;;
7881;SDS011;3986;41.884;23.466;2022-12-16T05:04:18;76.90;;;45.33;;
7881;SDS011;3986;41.884;23.466;2022-12-16T05:07:04;86.30;;;44.93;;
7881;SDS011;3986;41.884;23.466;2022-12-16T05:09:49;49.23;;;35.13;;
7881;SDS011;3986;41.884;23.466;2022-12-16T05:12:34;59.63;;;45.60;;
7881;SDS011;3986;41.884;23.466;2022-12-16T05:15:18;40.83;;;27.90;;
7881;SDS011;3986;41.884;23.466;2022-12-16T05:18:06;66.57;;;29.37;;
7881;SDS011;3986;41.884;23.466;2022-12-16T05:20:51;74.43;;;40.47;;
7881;SDS011;3986;41.884;23.466;2022-12-16T05:23:35;49.80;;;31.20;;
7881;SDS011;3986;41.884;23.466;2022-12-16T05:26:19;30.90;;;22.17;;
7881;SDS011;3986;41.884;23.466;2022-12-16T05:29:05;56.73;;;25.60;;
7881;SDS011;3986;41.884;23.466;2022-12-16T05:31:49;56.60;;;19.20;;
7881;SDS011;3986;41.884;23.466;2022-12-16T05:34:33;27.90;;;19.40;;
7881;SDS011;3986;41.884;23.466;2022-12-16T05:37:18;42.27;;;22.77;;
7881;SDS011;3986;41.884;23.466;2022-12-16T05:39:58;56.20;;;26.60;;
7881;SDS011;3986;41.884;23.466;2022-12-16T05:42:43;34.50;;;25.53;;
7881;SDS011;3986;41.884;23.466;2022-12-16T05:45:28;50.67;;;27.13;;
7881;SDS011;3986;41.884;23.466;2022-12-16T05:48:13;45.23;;;28.40;;
7881;SDS011;3986;41.884;23.466;2022-12-16T05:50:57;56.27;;;28.67;;
7881;SDS011;3986;41.884;23.466;2022-12-16T05:53:41;59.67;;;36.00;;
7881;SDS011;3986;41.884;23.466;2022-12-16T05:56:25;54.00;;;32.33;;
7881;SDS011;3986;41.884;23.466;2022-12-16T05:59:10;60.43;;;33.50;;
7881;SDS011;3986;41.884;23.466;2022-12-16T06:01:55;60.37;;;43.97;;
7881;SDS011;3986;41.884;23.466;2022-12-16T06:04:39;58.10;;;46.53;;
7881;SDS011;3986;41.884;23.466;2022-12-16T06:07:24;56.63;;;43.27;;
7881;SDS011;3986;41.884;23.466;2022-12-16T06:10:08;87.73;;;51.53;;
7881;SDS011;3986;41.884;23.466;2022-12-16T06:12:52;58.90;;;46.07;;
7881;SDS011;3986;41.884;23.466;2022-12-16T06:15:36;85.20;;;40.83;;
7881;SDS011;3986;41.884;23.466;2022-12-16T06:18:22;57.20;;;37.80;;
7881;SDS011;3986;41.884;23.466;2022-12-16T06:21:06;70.03;;;42.83;;
7881;SDS011;3986;41.884;23.466;2022-12-16T06:23:50;71.63;;;50.27;;
7881;SDS011;3986;41.884;23.466;2022-12-16T06:26:35;85.77;;;51.27;;
7881;SDS011;3986;41.884;23.466;2022-12-16T06:29:19;69.00;;;45.43;;
7881;SDS011;3986;41.884;23.466;2022-12-16T06:32:03;82.43;;;50.13;;
7881;SDS011;3986;41.884;23.466;2022-12-16T06:34:48;74.67;;;45.83;;
7881;SDS011;3986;41.884;23.466;2022-12-16T06:37:32;99.63;;;69.70;;
7881;SDS011;3986;41.884;23.466;2022-12-16T06:40:17;89.87;;;71.37;;
7881;SDS011;3986;41.884;23.466;2022-12-16T06:43:01;116.80;;;78.90;;
7881;SDS011;3986;41.884;23.466;2022-12-16T06:45:45;101.00;;;80.10;;
7881;SDS011;3986;41.884;23.466;2022-12-16T06:48:29;140.33;;;100.80;;
7881;SDS011;3986;41.884;23.466;2022-12-16T06:51:15;110.07;;;84.17;;
7881;SDS011;3986;41.884;23.466;2022-12-16T06:53:59;184.97;;;153.33;;
7881;SDS011;3986;41.884;23.466;2022-12-16T06:56:43;105.40;;;70.20;;
7881;SDS011;3986;41.884;23.466;2022-12-16T06:59:28;102.30;;;59.60;;
7881;SDS011;3986;41.884;23.466;2022-12-16T07:02:13;98.93;;;58.90;;
7881;SDS011;3986;41.884;23.466;2022-12-16T07:04:57;71.80;;;44.03;;
7881;SDS011;3986;41.884;23.466;2022-12-16T07:07:47;77.40;;;45.13;;
7881;SDS011;3986;41.884;23.466;2022-12-16T07:10:31;58.17;;;47.60;;
7881;SDS011;3986;41.884;23.466;2022-12-16T07:13:16;112.10;;;40.20;;
7881;SDS011;3986;41.884;23.466;2022-12-16T07:16:00;91.00;;;42.43;;
7881;SDS011;3986;41.884;23.466;2022-12-16T07:18:44;119.17;;;61.57;;
7881;SDS011;3986;41.884;23.466;2022-12-16T07:21:32;102.90;;;61.00;;
7881;SDS011;3986;41.884;23.466;2022-12-16T07:24:17;116.93;;;67.13;;
7881;SDS011;3986;41.884;23.466;2022-12-16T07:27:02;127.47;;;87.83;;
7881;SDS011;3986;41.884;23.466;2022-12-16T07:29:46;122.13;;;84.00;;
7881;SDS011;3986;41.884;23.466;2022-12-16T07:32:48;114.53;;;79.30;;
7881;SDS011;3986;41.884;23.466;2022-12-16T07:35:32;133.03;;;77.37;;
7881;SDS011;3986;41.884;23.466;2022-12-16T07:38:16;115.10;;;74.50;;
7881;SDS011;3986;41.884;23.466;2022-12-16T07:41:02;125.47;;;93.80;;
7881;SDS011;3986;41.884;23.466;2022-12-16T07:43:46;124.57;;;78.03;;
7881;SDS011;3986;41.884;23.466;2022-12-16T07:46:30;116.67;;;67.60;;
7881;SDS011;3986;41.884;23.466;2022-12-16T07:49:15;107.30;;;72.87;;
7881;SDS011;3986;41.884;23.466;2022-12-16T07:51:59;118.57;;;78.50;;
7881;SDS011;3986;41.884;23.466;2022-12-16T07:54:43;114.83;;;71.73;;
7881;SDS011;3986;41.884;23.466;2022-12-16T07:57:29;141.37;;;93.70;;
7881;SDS011;3986;41.884;23.466;2022-12-16T08:00:13;111.30;;;66.17;;
7881;SDS011;3986;41.884;23.466;2022-12-16T08:02:57;86.70;;;60.47;;
7881;SDS011;3986;41.884;23.466;2022-12-16T08:05:42;77.53;;;47.27;;
7881;SDS011;3986;41.884;23.466;2022-12-16T08:08:25;92.87;;;51.10;;
7881;SDS011;3986;41.884;23.466;2022-12-16T08:11:10;103.00;;;45.10;;
7881;SDS011;3986;41.884;23.466;2022-12-16T08:13:55;122.87;;;44.30;;
7881;SDS011;3986;41.884;23.466;2022-12-16T08:16:40;103.10;;;70.43;;
7881;SDS011;3986;41.884;23.466;2022-12-16T08:19:24;92.13;;;66.90;;
7881;SDS011;3986;41.884;23.466;2022-12-16T08:22:08;115.93;;;75.33;;
7881;SDS011;3986;41.884;23.466;2022-12-16T08:24:52;128.57;;;82.70;;
7881;SDS011;3986;41.884;23.466;2022-12-16T08:27:36;116.33;;;82.27;;
7881;SDS011;3986;41.884;23.466;2022-12-16T08:30:22;132.13;;;84.57;;
7881;SDS011;3986;41.884;23.466;2022-12-16T08:33:06;148.13;;;88.47;;
7881;SDS011;3986;41.884;23.466;2022-12-16T08:35:50;112.40;;;78.90;;
7881;SDS011;3986;41.884;23.466;2022-12-16T08:38:34;114.03;;;83.07;;
7881;SDS011;3986;41.884;23.466;2022-12-16T08:41:19;111.50;;;63.40;;
7881;SDS011;3986;41.884;23.466;2022-12-16T08:44:03;103.80;;;65.77;;
7881;SDS011;3986;41.884;23.466;2022-12-16T08:46:49;112.00;;;71.87;;
7881;SDS011;3986;41.884;23.466;2022-12-16T08:49:34;90.37;;;72.53;;
7881;SDS011;3986;41.884;23.466;2022-12-16T08:52:18;138.90;;;69.40;;
7881;SDS011;3986;41.884;23.466;2022-12-16T08:55:02;80.13;;;59.50;;
7881;SDS011;3986;41.884;23.466;2022-12-16T08:57:51;132.47;;;91.60;;
7881;SDS011;3986;41.884;23.466;2022-12-16T09:00:36;94.80;;;62.27;;
7881;SDS011;3986;41.884;23.466;2022-12-16T09:03:18;103.00;;;60.63;;
7881;SDS011;3986;41.884;23.466;2022-12-16T09:06:02;134.13;;;83.40;;
7881;SDS011;3986;41.884;23.466;2022-12-16T09:08:46;167.50;;;78.00;;
7881;SDS011;3986;41.884;23.466;2022-12-16T09:11:31;162.70;;;72.80;;
7881;SDS011;3986;41.884;23.466;2022-12-16T09:14:15;165.63;;;68.43;;
7881;SDS011;3986;41.884;23.466;2022-12-16T09:16:59;107.23;;;63.83;;
7881;SDS011;3986;41.884;23.466;2022-12-16T09:19:44;142.47;;;71.17;;
7881;SDS011;3986;41.884;23.466;2022-12-16T09:22:29;125.20;;;65.43;;
7881;SDS011;3986;41.884;23.466;2022-12-16T09:25:13;147.80;;;80.60;;
7881;SDS011;3986;41.884;23.466;2022-12-16T09:27:57;154.33;;;91.57;;
7881;SDS011;3986;41.884;23.466;2022-12-16T09:30:41;129.57;;;89.83;;
7881;SDS011;3986;41.884;23.466;2022-12-16T09:33:34;104.10;;;81.80;;
7881;SDS011;3986;41.884;23.466;2022-12-16T09:36:20;128.37;;;86.47;;
7881;SDS011;3986;41.884;23.466;2022-12-16T09:39:04;128.83;;;83.80;;
7881;SDS011;3986;41.884;23.466;2022-12-16T09:41:52;151.13;;;74.97;;
7881;SDS011;3986;41.884;23.466;2022-12-16T09:44:46;126.83;;;83.07;;
7881;SDS011;3986;41.884;23.466;2022-12-16T09:47:38;151.93;;;85.40;;
7881;SDS011;3986;41.884;23.466;2022-12-16T09:50:27;164.37;;;88.83;;
7881;SDS011;3986;41.884;23.466;2022-12-16T09:53:16;141.23;;;84.27;;
7881;SDS011;3986;41.884;23.466;2022-12-16T09:56:03;144.83;;;87.07;;
7881;SDS011;3986;41.884;23.466;2022-12-16T09:58:50;237.50;;;86.73;;
7881;SDS011;3986;41.884;23.466;2022-12-16T10:01:40;172.53;;;92.57;;
7881;SDS011;3986;41.884;23.466;2022-12-16T10:04:25;145.87;;;86.43;;
7881;SDS011;3986;41.884;23.466;2022-12-16T10:07:11;147.43;;;95.80;;
7881;SDS011;3986;41.884;23.466;2022-12-16T10:10:03;197.60;;;112.30;;
7881;SDS011;3986;41.884;23.466;2022-12-16T10:13:15;122.03;;;87.57;;
7881;SDS011;3986;41.884;23.466;2022-12-16T10:16:07;119.40;;;88.40;;
7881;SDS011;3986;41.884;23.466;2022-12-16T10:18:57;155.53;;;98.10;;
7881;SDS011;3986;41.884;23.466;2022-12-16T10:21:49;180.50;;;101.30;;
7881;SDS011;3986;41.884;23.466;2022-12-16T10:24:41;149.83;;;82.40;;
7881;SDS011;3986;41.884;23.466;2022-12-16T10:27:38;157.83;;;81.40;;
7881;SDS011;3986;41.884;23.466;2022-12-16T10:30:26;162.60;;;86.97;;
7881;SDS011;3986;41.884;23.466;2022-12-16T10:33:13;186.17;;;109.77;;
7881;SDS011;3986;41.884;23.466;2022-12-16T10:35:58;144.37;;;98.93;;
7881;SDS011;3986;41.884;23.466;2022-12-16T10:38:43;164.00;;;108.30;;
7881;SDS011;3986;41.884;23.466;2022-12-16T10:41:31;136.37;;;103.47;;
7881;SDS011;3986;41.884;23.466;2022-12-16T10:44:47;173.13;;;101.20;;
7881;SDS011;3986;41.884;23.466;2022-12-16T10:47:34;242.10;;;93.40;;
7881;SDS011;3986;41.884;23.466;2022-12-16T10:50:33;187.03;;;79.00;;
7881;SDS011;3986;41.884;23.466;2022-12-16T10:53:18;118.90;;;65.47;;
7881;SDS011;3986;41.884;23.466;2022-12-16T10:56:12;125.63;;;64.43;;
7881;SDS011;3986;41.884;23.466;2022-12-16T10:59:02;143.93;;;52.93;;
7881;SDS011;3986;41.884;23.466;2022-12-16T11:01:56;106.57;;;47.67;;
7881;SDS011;3986;41.884;23.466;2022-12-16T11:04:41;98.10;;;44.50;;
7881;SDS011;3986;41.884;23.466;2022-12-16T11:07:29;87.90;;;50.40;;
7881;SDS011;3986;41.884;23.466;2022-12-16T11:13:23;222.17;;;64.40;;
7881;SDS011;3986;41.884;23.466;2022-12-16T11:16:09;143.73;;;43.50;;
7881;SDS011;3986;41.884;23.466;2022-12-16T11:19:00;147.87;;;39.30;;
7881;SDS011;3986;41.884;23.466;2022-12-16T11:21:44;113.10;;;38.27;;
7881;SDS011;3986;41.884;23.466;2022-12-16T11:24:29;75.67;;;39.33;;
7881;SDS011;3986;41.884;23.466;2022-12-16T11:27:15;146.23;;;52.63;;
7881;SDS011;3986;41.884;23.466;2022-12-16T11:30:15;98.63;;;57.73;;
7881;SDS011;3986;41.884;23.466;2022-12-16T11:33:04;81.57;;;48.87;;
7881;SDS011;3986;41.884;23.466;2022-12-16T11:36:03;89.90;;;43.43;;
7881;SDS011;3986;41.884;23.466;2022-12-16T11:38:52;79.33;;;38.00;;
7881;SDS011;3986;41.884;23.466;2022-12-16T11:41:38;59.53;;;35.40;;
7881;SDS011;3986;41.884;23.466;2022-12-16T11:44:25;105.87;;;34.67;;
7881;SDS011;3986;41.884;23.466;2022-12-16T11:47:17;173.77;;;54.53;;
7881;SDS011;3986;41.884;23.466;2022-12-16T11:50:07;219.83;;;61.30;;
7881;SDS011;3986;41.884;23.466;2022-12-16T11:52:54;157.77;;;50.47;;
7881;SDS011;3986;41.884;23.466;2022-12-16T11:55:39;129.03;;;65.70;;
7881;SDS011;3986;41.884;23.466;2022-12-16T11:58:27;111.73;;;39.43;;
7881;SDS011;3986;41.884;23.466;2022-12-16T12:01:19;135.03;;;32.47;;
7881;SDS011;3986;41.884;23.466;2022-12-16T12:04:09;84.60;;;30.20;;
7881;SDS011;3986;41.884;23.466;2022-12-16T12:07:00;132.50;;;69.20;;
7881;SDS011;3986;41.884;23.466;2022-12-16T12:10:03;79.50;;;29.80;;
7881;SDS011;3986;41.884;23.466;2022-12-16T12:13:00;111.30;;;32.87;;
7881;SDS011;3986;41.884;23.466;2022-12-16T12:15:52;61.67;;;29.80;;
7881;SDS011;3986;41.884;23.466;2022-12-16T12:23:01;99.13;;;36.73;;
7881;SDS011;3986;41.884;23.466;2022-12-16T12:26:02;66.57;;;35.93;;
7881;SDS011;3986;41.884;23.466;2022-12-16T12:28:56;80.83;;;38.17;;
7881;SDS011;3986;41.884;23.466;2022-12-16T12:31:49;54.97;;;34.87;;
7881;SDS011;3986;41.884;23.466;2022-12-16T12:34:39;89.90;;;33.47;;
7881;SDS011;3986;41.884;23.466;2022-12-16T12:37:27;123.00;;;40.17;;
7881;SDS011;3986;41.884;23.466;2022-12-16T12:40:28;60.10;;;22.13;;
7881;SDS011;3986;41.884;23.466;2022-12-16T12:43:25;93.80;;;23.07;;
7881;SDS011;3986;41.884;23.466;2022-12-16T12:50:34;60.30;;;27.10;;
7881;SDS011;3986;41.884;23.466;2022-12-16T12:53:26;80.15;;;26.13;;
7881;SDS011;3986;41.884;23.466;2022-12-16T12:56:24;95.13;;;32.33;;
7881;SDS011;3986;41.884;23.466;2022-12-16T12:59:19;67.10;;;27.48;;
7881;SDS011;3986;41.884;23.466;2022-12-16T13:02:09;85.72;;;30.40;;
7881;SDS011;3986;41.884;23.466;2022-12-16T13:05:00;128.33;;;36.20;;
7881;SDS011;3986;41.884;23.466;2022-12-16T13:07:49;89.83;;;38.57;;
7881;SDS011;3986;41.884;23.466;2022-12-16T13:10:34;64.00;;;37.53;;
7881;SDS011;3986;41.884;23.466;2022-12-16T13:13:29;57.20;;;31.17;;
7881;SDS011;3986;41.884;23.466;2022-12-16T13:19:52;108.83;;;47.20;;
7881;SDS011;3986;41.884;23.466;2022-12-16T13:22:37;95.90;;;53.70;;
7881;SDS011;3986;41.884;23.466;2022-12-16T13:25:33;131.97;;;69.90;;
7881;SDS011;3986;41.884;23.466;2022-12-16T13:28:21;64.57;;;49.23;;
7881;SDS011;3986;41.884;23.466;2022-12-16T13:31:08;57.27;;;33.23;;
7881;SDS011;3986;41.884;23.466;2022-12-16T13:33:53;110.90;;;43.10;;
7881;SDS011;3986;41.884;23.466;2022-12-16T13:36:39;76.50;;;39.40;;
7881;SDS011;3986;41.884;23.466;2022-12-16T13:39:26;75.63;;;35.37;;
7881;SDS011;3986;41.884;23.466;2022-12-16T13:42:34;52.83;;;40.33;;
7881;SDS011;3986;41.884;23.466;2022-12-16T13:45:36;58.93;;;43.60;;
7881;SDS011;3986;41.884;23.466;2022-12-16T13:48:32;62.37;;;20.50;;
7881;SDS011;3986;41.884;23.466;2022-12-16T13:54:50;67.97;;;33.60;;
7881;SDS011;3986;41.884;23.466;2022-12-16T13:57:43;86.20;;;44.50;;
7881;SDS011;3986;41.884;23.466;2022-12-16T14:00:29;77.73;;;35.97;;
7881;SDS011;3986;41.884;23.466;2022-12-16T14:03:20;81.47;;;37.77;;
7881;SDS011;3986;41.884;23.466;2022-12-16T14:06:08;65.13;;;35.67;;
7881;SDS011;3986;41.884;23.466;2022-12-16T14:08:58;90.37;;;44.50;;
7881;SDS011;3986;41.884;23.466;2022-12-16T14:11:45;72.73;;;41.07;;
7881;SDS011;3986;41.884;23.466;2022-12-16T14:14:41;64.33;;;40.37;;
7881;SDS011;3986;41.884;23.466;2022-12-16T14:17:31;112.10;;;61.47;;
7881;SDS011;3986;41.884;23.466;2022-12-16T14:20:23;95.87;;;67.13;;
7881;SDS011;3986;41.884;23.466;2022-12-16T14:23:17;110.27;;;72.90;;
7881;SDS011;3986;41.884;23.466;2022-12-16T14:26:12;135.33;;;120.83;;
7881;SDS011;3986;41.884;23.466;2022-12-16T14:28:58;166.10;;;107.23;;
7881;SDS011;3986;41.884;23.466;2022-12-16T14:31:45;120.00;;;105.20;;
7881;SDS011;3986;41.884;23.466;2022-12-16T14:34:33;134.03;;;100.60;;
7881;SDS011;3986;41.884;23.466;2022-12-16T14:37:19;125.03;;;94.33;;
7881;SDS011;3986;41.884;23.466;2022-12-16T14:40:17;134.70;;;89.53;;
7881;SDS011;3986;41.884;23.466;2022-12-16T14:43:03;144.90;;;87.47;;
7881;SDS011;3986;41.884;23.466;2022-12-16T14:45:54;161.33;;;113.83;;
7881;SDS011;3986;41.884;23.466;2022-12-16T14:48:40;181.60;;;128.67;;
7881;SDS011;3986;41.884;23.466;2022-12-16T14:51:29;164.63;;;122.47;;
7881;SDS011;3986;41.884;23.466;2022-12-16T14:54:18;116.50;;;104.17;;
7881;SDS011;3986;41.884;23.466;2022-12-16T14:57:12;137.03;;;107.03;;
7881;SDS011;3986;41.884;23.466;2022-12-16T14:59:59;133.17;;;93.07;;
7881;SDS011;3986;41.884;23.466;2022-12-16T15:02:44;167.63;;;119.90;;
7881;SDS011;3986;41.884;23.466;2022-12-16T15:05:32;180.20;;;110.67;;
7881;SDS011;3986;41.884;23.466;2022-12-16T15:08:19;203.90;;;142.97;;
7881;SDS011;3986;41.884;23.466;2022-12-16T15:11:04;189.90;;;133.43;;
7881;SDS011;3986;41.884;23.466;2022-12-16T15:13:54;178.83;;;135.67;;
7881;SDS011;3986;41.884;23.466;2022-12-16T15:16:44;200.97;;;156.33;;
7881;SDS011;3986;41.884;23.466;2022-12-16T15:19:31;214.47;;;153.10;;
7881;SDS011;3986;41.884;23.466;2022-12-16T15:22:22;245.50;;;162.57;;
7881;SDS011;3986;41.884;23.466;2022-12-16T15:25:15;211.13;;;160.53;;
7881;SDS011;3986;41.884;23.466;2022-12-16T15:28:02;241.47;;;171.00;;
7881;SDS011;3986;41.884;23.466;2022-12-16T15:30:47;228.33;;;161.80;;
7881;SDS011;3986;41.884;23.466;2022-12-16T15:33:32;236.17;;;174.07;;
7881;SDS011;3986;41.884;23.466;2022-12-16T15:36:24;257.03;;;201.53;;
7881;SDS011;3986;41.884;23.466;2022-12-16T15:39:18;227.57;;;188.10;;
7881;SDS011;3986;41.884;23.466;2022-12-16T15:42:04;259.73;;;201.60;;
7881;SDS011;3986;41.884;23.466;2022-12-16T15:45:00;264.93;;;178.43;;
7881;SDS011;3986;41.884;23.466;2022-12-16T15:47:47;288.43;;;244.53;;
7881;SDS011;3986;41.884;23.466;2022-12-16T15:50:32;274.43;;;206.13;;
7881;SDS011;3986;41.884;23.466;2022-12-16T15:53:28;276.67;;;231.87;;
7881;SDS011;3986;41.884;23.466;2022-12-16T15:56:19;267.27;;;214.50;;
7881;SDS011;3986;41.884;23.466;2022-12-16T15:59:13;301.20;;;222.90;;
7881;SDS011;3986;41.884;23.466;2022-12-16T16:02:20;267.97;;;225.00;;
7881;SDS011;3986;41.884;23.466;2022-12-16T16:05:09;261.77;;;208.03;;
7881;SDS011;3986;41.884;23.466;2022-12-16T16:07:55;251.33;;;209.63;;
7881;SDS011;3986;41.884;23.466;2022-12-16T16:10:40;176.77;;;157.87;;
7881;SDS011;3986;41.884;23.466;2022-12-16T16:13:26;222.10;;;166.43;;
7881;SDS011;3986;41.884;23.466;2022-12-16T16:16:10;192.87;;;161.77;;
7881;SDS011;3986;41.884;23.466;2022-12-16T16:18:55;210.07;;;154.40;;
7881;SDS011;3986;41.884;23.466;2022-12-16T16:21:39;207.13;;;184.67;;
7881;SDS011;3986;41.884;23.466;2022-12-16T16:24:23;269.90;;;240.03;;
7881;SDS011;3986;41.884;23.466;2022-12-16T16:27:08;282.37;;;228.13;;